sensor_id;sensor_type;location;lat;lon;timestamp;pressure;altitude;pressure_sealevel;temperature;humidity
39411;BME280;26579;43.238;23.124;2023-01-05T00:00:11;97821.69;;;9.05;66.00
39411;BME280;26579;43.238;23.124;2023-01-05T00:02:39;97815.53;;;9.06;65.43
39411;BME280;26579;43.238;23.124;2023-01-05T00:05:05;97825.56;;;8.98;66.29
39411;BME280;26579;43.238;23.124;2023-01-05T00:07:30;97824.75;;;8.98;66.51
39411;BME280;26579;43.238;23.124;2023-01-05T00:09:56;97827.44;;;8.96;66.77
39411;BME280;26579;43.238;23.124;2023-01-05T00:12:21;97825.19;;;9.04;66.55
39411;BME280;26579;43.238;23.124;2023-01-05T00:14:47;97825.09;;;9.06;66.51
39411;BME280;26579;43.238;23.124;2023-01-05T00:17:14;97823.16;;;9.10;66.24
39411;BME280;26579;43.238;23.124;2023-01-05T00:19:40;97825.38;;;9.16;66.42
39411;BME280;26579;43.238;23.124;2023-01-05T00:22:24;97820.66;;;9.22;66.07
39411;BME280;26579;43.238;23.124;2023-01-05T00:24:50;97817.00;;;9.25;66.10
39411;BME280;26579;43.238;23.124;2023-01-05T00:27:15;97812.38;;;9.16;66.40
39411;BME280;26579;43.238;23.124;2023-01-05T00:29:41;97811.53;;;9.15;66.38
39411;BME280;26579;43.238;23.124;2023-01-05T00:32:06;97804.84;;;9.25;65.72
39411;BME280;26579;43.238;23.124;2023-01-05T00:34:32;97801.88;;;9.32;66.13
39411;BME280;26579;43.238;23.124;2023-01-05T00:36:57;97798.34;;;9.33;65.64
39411;BME280;26579;43.238;23.124;2023-01-05T00:39:24;97802.84;;;9.43;65.67
39411;BME280;26579;43.238;23.124;2023-01-05T00:41:49;97799.91;;;9.35;65.54
39411;BME280;26579;43.238;23.124;2023-01-05T00:44:15;97795.44;;;9.37;65.81
39411;BME280;26579;43.238;23.124;2023-01-05T00:46:40;97792.38;;;9.30;66.29
39411;BME280;26579;43.238;23.124;2023-01-05T00:49:06;97784.50;;;9.32;66.29
39411;BME280;26579;43.238;23.124;2023-01-05T00:51:31;97788.41;;;9.25;66.51
39411;BME280;26579;43.238;23.124;2023-01-05T00:53:57;97785.19;;;9.21;66.91
39411;BME280;26579;43.238;23.124;2023-01-05T00:56:22;97778.22;;;9.22;66.70
39411;BME280;26579;43.238;23.124;2023-01-05T00:58:48;97778.41;;;9.19;66.78
39411;BME280;26579;43.238;23.124;2023-01-05T01:01:17;97773.31;;;9.17;67.26
39411;BME280;26579;43.238;23.124;2023-01-05T01:03:42;97773.22;;;9.19;67.17
39411;BME280;26579;43.238;23.124;2023-01-05T01:06:08;97774.16;;;9.18;67.16
39411;BME280;26579;43.238;23.124;2023-01-05T01:08:33;97764.03;;;9.13;67.82
39411;BME280;26579;43.238;23.124;2023-01-05T01:11:02;97763.94;;;9.15;68.07
39411;BME280;26579;43.238;23.124;2023-01-05T01:13:28;97762.28;;;9.14;68.01
39411;BME280;26579;43.238;23.124;2023-01-05T01:15:55;97760.69;;;9.25;67.83
39411;BME280;26579;43.238;23.124;2023-01-05T01:18:20;97756.66;;;9.34;67.42
39411;BME280;26579;43.238;23.124;2023-01-05T01:20:45;97753.69;;;9.40;67.27
39411;BME280;26579;43.238;23.124;2023-01-05T01:23:11;97748.81;;;9.48;67.29
39411;BME280;26579;43.238;23.124;2023-01-05T01:25:37;97738.03;;;9.55;66.28
39411;BME280;26579;43.238;23.124;2023-01-05T01:28:03;97732.50;;;9.59;65.85
39411;BME280;26579;43.238;23.124;2023-01-05T01:30:28;97727.31;;;9.59;65.77
39411;BME280;26579;43.238;23.124;2023-01-05T01:32:53;97730.66;;;9.61;65.76
39411;BME280;26579;43.238;23.124;2023-01-05T01:35:19;97727.50;;;9.56;65.90
39411;BME280;26579;43.238;23.124;2023-01-05T01:37:45;97731.13;;;9.53;65.95
39411;BME280;26579;43.238;23.124;2023-01-05T01:40:10;97727.50;;;9.43;66.45
39411;BME280;26579;43.238;23.124;2023-01-05T01:42:36;97705.00;;;9.42;66.06
39411;BME280;26579;43.238;23.124;2023-01-05T01:45:44;97700.91;;;9.52;65.08
39411;BME280;26579;43.238;23.124;2023-01-05T01:47:57;97697.06;;;9.58;64.98
39411;BME280;26579;43.238;23.124;2023-01-05T01:52:53;97698.97;;;9.69;64.41
39411;BME280;26579;43.238;23.124;2023-01-05T01:55:20;97694.34;;;9.60;64.70
39411;BME280;26579;43.238;23.124;2023-01-05T01:57:46;97690.50;;;9.52;65.01
39411;BME280;26579;43.238;23.124;2023-01-05T02:00:13;97695.69;;;9.52;64.80
39411;BME280;26579;43.238;23.124;2023-01-05T02:02:48;97691.94;;;9.44;65.20
39411;BME280;26579;43.238;23.124;2023-01-05T02:05:20;97698.38;;;9.51;65.10
39411;BME280;26579;43.238;23.124;2023-01-05T02:07:46;97696.53;;;9.53;65.22
39411;BME280;26579;43.238;23.124;2023-01-05T02:10:13;97687.41;;;9.60;64.78
39411;BME280;26579;43.238;23.124;2023-01-05T02:13:09;97686.16;;;9.66;64.22
39411;BME280;26579;43.238;23.124;2023-01-05T02:15:43;97678.66;;;9.61;64.05
39411;BME280;26579;43.238;23.124;2023-01-05T02:18:25;97681.78;;;9.66;63.81
39411;BME280;26579;43.238;23.124;2023-01-05T02:31:20;97646.84;;;9.58;63.68
39411;BME280;26579;43.238;23.124;2023-01-05T02:33:52;97640.69;;;9.59;63.82
39411;BME280;26579;43.238;23.124;2023-01-05T02:41:39;97613.75;;;9.34;65.03
39411;BME280;26579;43.238;23.124;2023-01-05T02:44:07;97608.63;;;9.20;65.17
39411;BME280;26579;43.238;23.124;2023-01-05T02:46:33;97600.72;;;9.21;64.82
39411;BME280;26579;43.238;23.124;2023-01-05T02:48:58;97597.91;;;9.12;65.17
39411;BME280;26579;43.238;23.124;2023-01-05T02:51:28;97588.31;;;9.12;65.20
39411;BME280;26579;43.238;23.124;2023-01-05T02:54:08;97579.03;;;8.95;65.49
39411;BME280;26579;43.238;23.124;2023-01-05T02:56:39;97579.16;;;8.94;65.53
39411;BME280;26579;43.238;23.124;2023-01-05T02:59:15;97571.66;;;8.89;65.38
39411;BME280;26579;43.238;23.124;2023-01-05T03:01:44;97568.00;;;8.79;65.62
39411;BME280;26579;43.238;23.124;2023-01-05T03:04:17;97561.66;;;8.83;65.45
39411;BME280;26579;43.238;23.124;2023-01-05T03:06:45;97556.25;;;8.86;65.13
39411;BME280;26579;43.238;23.124;2023-01-05T03:09:15;97554.16;;;8.78;65.12
39411;BME280;26579;43.238;23.124;2023-01-05T03:11:59;97546.28;;;8.80;65.06
39411;BME280;26579;43.238;23.124;2023-01-05T03:14:27;97545.03;;;8.73;65.52
39411;BME280;26579;43.238;23.124;2023-01-05T03:16:55;97548.78;;;8.54;65.99
39411;BME280;26579;43.238;23.124;2023-01-05T03:19:22;97546.00;;;8.57;65.98
39411;BME280;26579;43.238;23.124;2023-01-05T03:21:50;97538.88;;;8.61;65.43
39411;BME280;26579;43.238;23.124;2023-01-05T03:24:16;97535.81;;;8.54;65.16
39411;BME280;26579;43.238;23.124;2023-01-05T03:26:42;97542.53;;;8.44;65.38
39411;BME280;26579;43.238;23.124;2023-01-05T03:29:08;97537.63;;;8.39;65.70
39411;BME280;26579;43.238;23.124;2023-01-05T03:31:39;97539.84;;;8.31;65.70
39411;BME280;26579;43.238;23.124;2023-01-05T03:34:09;97542.09;;;8.23;65.96
39411;BME280;26579;43.238;23.124;2023-01-05T03:36:43;97550.16;;;8.19;66.06
39411;BME280;26579;43.238;23.124;2023-01-05T03:39:11;97547.84;;;8.14;66.13
39411;BME280;26579;43.238;23.124;2023-01-05T03:41:39;97549.16;;;8.07;66.48
39411;BME280;26579;43.238;23.124;2023-01-05T03:44:05;97542.69;;;8.00;66.77
39411;BME280;26579;43.238;23.124;2023-01-05T03:46:34;97554.56;;;7.89;67.17
39411;BME280;26579;43.238;23.124;2023-01-05T03:49:02;97555.31;;;7.77;67.68
39411;BME280;26579;43.238;23.124;2023-01-05T03:51:27;97555.13;;;7.80;67.67
39411;BME280;26579;43.238;23.124;2023-01-05T03:53:53;97555.00;;;7.82;67.27
39411;BME280;26579;43.238;23.124;2023-01-05T03:56:19;97553.63;;;7.76;66.84
39411;BME280;26579;43.238;23.124;2023-01-05T03:58:44;97556.50;;;7.71;67.07
39411;BME280;26579;43.238;23.124;2023-01-05T04:01:10;97559.75;;;7.61;66.92
39411;BME280;26579;43.238;23.124;2023-01-05T04:03:36;97563.34;;;7.58;66.92
39411;BME280;26579;43.238;23.124;2023-01-05T04:06:05;97561.69;;;7.57;67.21
39411;BME280;26579;43.238;23.124;2023-01-05T04:08:32;97564.75;;;7.64;66.43
39411;BME280;26579;43.238;23.124;2023-01-05T04:11:20;97560.09;;;7.55;66.96
39411;BME280;26579;43.238;23.124;2023-01-05T04:13:50;97566.94;;;7.56;67.39
39411;BME280;26579;43.238;23.124;2023-01-05T04:16:17;97554.47;;;7.48;67.65
39411;BME280;26579;43.238;23.124;2023-01-05T04:18:42;97560.28;;;7.52;67.62
39411;BME280;26579;43.238;23.124;2023-01-05T04:21:08;97557.78;;;7.50;67.46
39411;BME280;26579;43.238;23.124;2023-01-05T04:23:34;97552.25;;;7.42;67.84
39411;BME280;26579;43.238;23.124;2023-01-05T04:26:02;97550.88;;;7.51;67.58
39411;BME280;26579;43.238;23.124;2023-01-05T04:28:28;97549.94;;;7.52;67.36
39411;BME280;26579;43.238;23.124;2023-01-05T04:30:56;97545.84;;;7.47;67.60
39411;BME280;26579;43.238;23.124;2023-01-05T04:33:23;97545.56;;;7.52;67.48
39411;BME280;26579;43.238;23.124;2023-01-05T04:35:50;97535.84;;;7.56;67.21
39411;BME280;26579;43.238;23.124;2023-01-05T04:38:17;97535.97;;;7.54;67.17
39411;BME280;26579;43.238;23.124;2023-01-05T04:40:49;97534.56;;;7.48;67.39
39411;BME280;26579;43.238;23.124;2023-01-05T04:43:16;97525.41;;;7.43;67.01
39411;BME280;26579;43.238;23.124;2023-01-05T04:45:44;97523.56;;;7.45;67.09
39411;BME280;26579;43.238;23.124;2023-01-05T04:48:10;97512.44;;;7.43;66.74
39411;BME280;26579;43.238;23.124;2023-01-05T04:50:37;97507.09;;;7.46;66.64
39411;BME280;26579;43.238;23.124;2023-01-05T04:53:04;97503.94;;;7.41;66.80
39411;BME280;26579;43.238;23.124;2023-01-05T04:55:32;97497.53;;;7.46;66.59
39411;BME280;26579;43.238;23.124;2023-01-05T04:57:57;97487.00;;;7.35;66.63
39411;BME280;26579;43.238;23.124;2023-01-05T05:00:23;97486.47;;;7.30;67.40
39411;BME280;26579;43.238;23.124;2023-01-05T05:02:49;97482.00;;;7.32;67.17
39411;BME280;26579;43.238;23.124;2023-01-05T05:05:15;97468.47;;;7.27;67.22
39411;BME280;26579;43.238;23.124;2023-01-05T05:07:41;97469.59;;;7.23;67.45
39411;BME280;26579;43.238;23.124;2023-01-05T05:10:08;97460.44;;;7.32;67.42
39411;BME280;26579;43.238;23.124;2023-01-05T05:12:34;97453.44;;;7.34;67.22
39411;BME280;26579;43.238;23.124;2023-01-05T05:14:59;97459.50;;;7.47;66.98
39411;BME280;26579;43.238;23.124;2023-01-05T05:17:28;97460.91;;;7.38;67.05
39411;BME280;26579;43.238;23.124;2023-01-05T05:19:54;97456.38;;;7.42;66.44
39411;BME280;26579;43.238;23.124;2023-01-05T05:22:21;97448.44;;;7.31;66.20
39411;BME280;26579;43.238;23.124;2023-01-05T05:24:46;97438.25;;;7.28;66.57
39411;BME280;26579;43.238;23.124;2023-01-05T05:27:12;97444.72;;;7.35;66.03
39411;BME280;26579;43.238;23.124;2023-01-05T05:29:37;97451.22;;;7.28;66.60
39411;BME280;26579;43.238;23.124;2023-01-05T05:32:03;97451.09;;;7.29;66.39
39411;BME280;26579;43.238;23.124;2023-01-05T05:34:29;97452.78;;;7.30;66.40
39411;BME280;26579;43.238;23.124;2023-01-05T05:36:54;97461.84;;;7.37;66.22
39411;BME280;26579;43.238;23.124;2023-01-05T05:39:20;97458.78;;;7.31;66.63
39411;BME280;26579;43.238;23.124;2023-01-05T05:41:45;97461.28;;;7.46;66.00
39411;BME280;26579;43.238;23.124;2023-01-05T05:44:11;97458.50;;;7.49;65.58
39411;BME280;26579;43.238;23.124;2023-01-05T05:46:37;97458.41;;;7.51;65.21
39411;BME280;26579;43.238;23.124;2023-01-05T05:49:02;97454.53;;;7.44;65.36
39411;BME280;26579;43.238;23.124;2023-01-05T05:51:27;97462.09;;;7.33;65.50
39411;BME280;26579;43.238;23.124;2023-01-05T05:53:53;97450.84;;;7.34;65.57
39411;BME280;26579;43.238;23.124;2023-01-05T05:56:19;97455.72;;;7.38;65.59
39411;BME280;26579;43.238;23.124;2023-01-05T05:58:44;97454.34;;;7.33;65.92
39411;BME280;26579;43.238;23.124;2023-01-05T06:01:10;97453.81;;;7.28;65.73
39411;BME280;26579;43.238;23.124;2023-01-05T06:03:36;97449.16;;;7.33;65.30
39411;BME280;26579;43.238;23.124;2023-01-05T06:06:01;97443.91;;;7.34;65.11
39411;BME280;26579;43.238;23.124;2023-01-05T06:08:27;97440.38;;;7.35;64.80
39411;BME280;26579;43.238;23.124;2023-01-05T06:10:53;97442.88;;;7.37;64.91
39411;BME280;26579;43.238;23.124;2023-01-05T06:13:19;97438.06;;;7.31;64.83
39411;BME280;26579;43.238;23.124;2023-01-05T06:15:44;97444.72;;;7.35;65.03
39411;BME280;26579;43.238;23.124;2023-01-05T06:18:10;97430.50;;;7.42;64.07
39411;BME280;26579;43.238;23.124;2023-01-05T06:20:35;97431.78;;;7.35;64.19
39411;BME280;26579;43.238;23.124;2023-01-05T06:23:01;97425.31;;;7.28;64.14
39411;BME280;26579;43.238;23.124;2023-01-05T06:25:27;97425.84;;;7.18;64.53
39411;BME280;26579;43.238;23.124;2023-01-05T06:27:52;97422.53;;;7.31;64.46
39411;BME280;26579;43.238;23.124;2023-01-05T06:30:18;97416.47;;;7.44;64.09
39411;BME280;26579;43.238;23.124;2023-01-05T06:32:43;97416.84;;;7.53;63.82
39411;BME280;26579;43.238;23.124;2023-01-05T06:35:09;97408.69;;;7.59;63.61
39411;BME280;26579;43.238;23.124;2023-01-05T06:37:34;97403.88;;;7.67;63.14
39411;BME280;26579;43.238;23.124;2023-01-05T06:40:00;97410.34;;;7.74;63.17
39411;BME280;26579;43.238;23.124;2023-01-05T06:42:25;97400.19;;;7.71;62.86
39411;BME280;26579;43.238;23.124;2023-01-05T06:44:51;97398.09;;;7.76;62.61
39411;BME280;26579;43.238;23.124;2023-01-05T06:47:17;97398.56;;;7.83;62.68
39411;BME280;26579;43.238;23.124;2023-01-05T06:49:42;97397.03;;;7.93;61.89
39411;BME280;26579;43.238;23.124;2023-01-05T06:52:08;97392.47;;;7.97;61.50
39411;BME280;26579;43.238;23.124;2023-01-05T06:54:34;97395.53;;;8.03;61.77
39411;BME280;26579;43.238;23.124;2023-01-05T06:56:59;97379.56;;;8.09;60.61
39411;BME280;26579;43.238;23.124;2023-01-05T06:59:25;97386.00;;;8.16;60.99
39411;BME280;26579;43.238;23.124;2023-01-05T07:01:50;97386.06;;;8.29;62.90
39411;BME280;26579;43.238;23.124;2023-01-05T07:04:16;97376.50;;;8.70;71.37
39411;BME280;26579;43.238;23.124;2023-01-05T07:06:41;97379.28;;;9.05;64.05
39411;BME280;26579;43.238;23.124;2023-01-05T07:09:07;97375.03;;;9.17;58.22
39411;BME280;26579;43.238;23.124;2023-01-05T07:11:33;97382.59;;;9.20;57.54
39411;BME280;26579;43.238;23.124;2023-01-05T07:13:58;97371.34;;;9.32;56.99
39411;BME280;26579;43.238;23.124;2023-01-05T07:16:24;97380.81;;;9.70;56.14
39411;BME280;26579;43.238;23.124;2023-01-05T07:18:49;97377.91;;;9.98;55.68
39411;BME280;26579;43.238;23.124;2023-01-05T07:21:15;97365.25;;;10.29;54.07
39411;BME280;26579;43.238;23.124;2023-01-05T07:23:40;97377.59;;;10.74;52.55
39411;BME280;26579;43.238;23.124;2023-01-05T07:26:06;97371.31;;;11.32;50.40
39411;BME280;26579;43.238;23.124;2023-01-05T07:28:33;97368.78;;;11.87;49.02
39411;BME280;26579;43.238;23.124;2023-01-05T07:30:58;97372.53;;;12.48;47.06
39411;BME280;26579;43.238;23.124;2023-01-05T07:33:24;97366.06;;;13.14;45.57
39411;BME280;26579;43.238;23.124;2023-01-05T07:35:49;97363.63;;;13.63;44.18
39411;BME280;26579;43.238;23.124;2023-01-05T07:38:15;97359.69;;;13.88;43.35
39411;BME280;26579;43.238;23.124;2023-01-05T07:40:41;97360.78;;;13.95;43.55
39411;BME280;26579;43.238;23.124;2023-01-05T07:43:06;97360.66;;;14.45;41.93
39411;BME280;26579;43.238;23.124;2023-01-05T07:45:32;97356.00;;;14.59;42.09
39411;BME280;26579;43.238;23.124;2023-01-05T07:47:57;97352.66;;;14.27;42.61
39411;BME280;26579;43.238;23.124;2023-01-05T07:50:23;97344.53;;;14.01;43.29
39411;BME280;26579;43.238;23.124;2023-01-05T07:52:48;97342.78;;;14.31;43.07
39411;BME280;26579;43.238;23.124;2023-01-05T07:55:14;97341.47;;;14.74;42.36
39411;BME280;26579;43.238;23.124;2023-01-05T07:57:39;97347.44;;;15.04;41.90
39411;BME280;26579;43.238;23.124;2023-01-05T08:00:05;97344.28;;;15.37;41.33
39411;BME280;26579;43.238;23.124;2023-01-05T08:02:37;97338.66;;;15.60;40.89
39411;BME280;26579;43.238;23.124;2023-01-05T08:05:02;97336.38;;;15.93;39.51
39411;BME280;26579;43.238;23.124;2023-01-05T08:07:28;97328.81;;;15.90;39.04
39411;BME280;26579;43.238;23.124;2023-01-05T08:09:53;97323.31;;;16.19;39.00
39411;BME280;26579;43.238;23.124;2023-01-05T08:12:19;97312.13;;;16.17;39.19
39411;BME280;26579;43.238;23.124;2023-01-05T08:14:45;97311.47;;;16.33;39.49
39411;BME280;26579;43.238;23.124;2023-01-05T08:17:10;97312.34;;;16.41;38.49
39411;BME280;26579;43.238;23.124;2023-01-05T08:19:36;97305.66;;;16.47;38.84
39411;BME280;26579;43.238;23.124;2023-01-05T08:22:01;97301.47;;;16.62;38.32
39411;BME280;26579;43.238;23.124;2023-01-05T08:24:27;97293.34;;;16.73;38.38
39411;BME280;26579;43.238;23.124;2023-01-05T08:26:52;97271.28;;;17.35;37.58
39411;BME280;26579;43.238;23.124;2023-01-05T08:29:18;97267.44;;;17.80;35.95
39411;BME280;26579;43.238;23.124;2023-01-05T08:31:43;97268.94;;;18.56;35.13
39411;BME280;26579;43.238;23.124;2023-01-05T08:34:09;97261.06;;;19.04;34.25
39411;BME280;26579;43.238;23.124;2023-01-05T08:36:34;97249.81;;;19.49;32.73
39411;BME280;26579;43.238;23.124;2023-01-05T08:39:00;97246.00;;;20.88;30.75
39411;BME280;26579;43.238;23.124;2023-01-05T08:41:32;97238.72;;;22.21;28.52
39411;BME280;26579;43.238;23.124;2023-01-05T08:43:59;97228.97;;;23.25;27.42
39411;BME280;26579;43.238;23.124;2023-01-05T08:46:26;97216.69;;;24.06;25.80
39411;BME280;26579;43.238;23.124;2023-01-05T08:48:53;97221.41;;;24.50;24.72
39411;BME280;26579;43.238;23.124;2023-01-05T08:51:19;97231.31;;;23.55;25.50
39411;BME280;26579;43.238;23.124;2023-01-05T08:53:45;97231.44;;;23.34;26.17
39411;BME280;26579;43.238;23.124;2023-01-05T08:56:10;97224.72;;;23.38;25.88
39411;BME280;26579;43.238;23.124;2023-01-05T08:58:36;97224.22;;;23.76;25.51
39411;BME280;26579;43.238;23.124;2023-01-05T09:01:06;97222.56;;;23.68;25.62
39411;BME280;26579;43.238;23.124;2023-01-05T09:03:31;97217.91;;;24.03;25.17
39411;BME280;26579;43.238;23.124;2023-01-05T09:05:57;97214.81;;;24.39;24.25
39411;BME280;26579;43.238;23.124;2023-01-05T09:08:22;97210.72;;;24.37;24.21
39411;BME280;26579;43.238;23.124;2023-01-05T09:10:48;97217.72;;;24.25;24.40
39411;BME280;26579;43.238;23.124;2023-01-05T09:13:13;97215.66;;;24.33;24.31
39411;BME280;26579;43.238;23.124;2023-01-05T09:15:39;97215.44;;;24.55;23.97
39411;BME280;26579;43.238;23.124;2023-01-05T09:18:04;97214.22;;;24.64;23.75
39411;BME280;26579;43.238;23.124;2023-01-05T09:20:30;97205.00;;;24.20;24.58
39411;BME280;26579;43.238;23.124;2023-01-05T09:22:55;97198.06;;;23.99;23.99
39411;BME280;26579;43.238;23.124;2023-01-05T09:25:21;97201.75;;;23.91;23.87
39411;BME280;26579;43.238;23.124;2023-01-05T09:27:46;97212.38;;;24.25;24.04
39411;BME280;26579;43.238;23.124;2023-01-05T09:30:12;97210.72;;;23.90;23.54
39411;BME280;26579;43.238;23.124;2023-01-05T09:32:37;97206.03;;;23.92;24.05
39411;BME280;26579;43.238;23.124;2023-01-05T09:35:03;97206.25;;;24.24;24.12
39411;BME280;26579;43.238;23.124;2023-01-05T09:37:29;97199.06;;;24.51;23.91
39411;BME280;26579;43.238;23.124;2023-01-05T09:39:54;97207.91;;;25.23;23.27
39411;BME280;26579;43.238;23.124;2023-01-05T09:42:20;97204.22;;;24.53;22.95
39411;BME280;26579;43.238;23.124;2023-01-05T09:44:55;97201.13;;;23.83;23.54
39411;BME280;26579;43.238;23.124;2023-01-05T09:47:30;97198.94;;;23.25;24.51
39411;BME280;26579;43.238;23.124;2023-01-05T09:49:57;97189.53;;;23.36;24.68
39411;BME280;26579;43.238;23.124;2023-01-05T09:52:24;97179.66;;;23.71;24.07
39411;BME280;26579;43.238;23.124;2023-01-05T09:54:50;97175.78;;;24.07;24.15
39411;BME280;26579;43.238;23.124;2023-01-05T09:57:23;97170.25;;;23.75;24.01
39411;BME280;26579;43.238;23.124;2023-01-05T09:59:50;97167.19;;;23.91;23.62
39411;BME280;26579;43.238;23.124;2023-01-05T10:04:48;97158.22;;;25.67;22.50
39411;BME280;26579;43.238;23.124;2023-01-05T10:09:48;97148.94;;;26.27;21.26
39411;BME280;26579;43.238;23.124;2023-01-05T10:12:20;97144.59;;;25.82;21.43
39411;BME280;26579;43.238;23.124;2023-01-05T10:14:52;97143.94;;;24.72;22.54
39411;BME280;26579;43.238;23.124;2023-01-05T10:17:20;97139.63;;;25.29;22.42
39411;BME280;26579;43.238;23.124;2023-01-05T10:19:55;97134.91;;;24.79;22.01
39411;BME280;26579;43.238;23.124;2023-01-05T10:24:51;97130.19;;;23.77;23.14
39411;BME280;26579;43.238;23.124;2023-01-05T10:30:16;97121.19;;;23.78;23.24
39411;BME280;26579;43.238;23.124;2023-01-05T10:35:27;97124.19;;;22.80;25.10
39411;BME280;26579;43.238;23.124;2023-01-05T10:40:31;97127.16;;;21.08;25.84
39411;BME280;26579;43.238;23.124;2023-01-05T10:43:09;97125.41;;;20.64;26.39
39411;BME280;26579;43.238;23.124;2023-01-05T10:45:39;97122.47;;;20.15;27.07
39411;BME280;26579;43.238;23.124;2023-01-05T10:48:10;97117.28;;;20.06;27.72
39411;BME280;26579;43.238;23.124;2023-01-05T10:50:41;97110.03;;;19.71;27.95
39411;BME280;26579;43.238;23.124;2023-01-05T10:58:20;97109.91;;;18.95;29.17
39411;BME280;26579;43.238;23.124;2023-01-05T11:00:46;97099.97;;;18.74;29.62
39411;BME280;26579;43.238;23.124;2023-01-05T11:03:12;97104.28;;;18.59;29.83
39411;BME280;26579;43.238;23.124;2023-01-05T11:05:43;97093.78;;;18.50;30.10
39411;BME280;26579;43.238;23.124;2023-01-05T11:08:24;97080.25;;;18.53;29.62
39411;BME280;26579;43.238;23.124;2023-01-05T11:10:55;97070.00;;;18.59;30.09
39411;BME280;26579;43.238;23.124;2023-01-05T11:13:39;97071.41;;;18.38;29.95
39411;BME280;26579;43.238;23.124;2023-01-05T11:16:10;97063.28;;;18.17;30.96
39411;BME280;26579;43.238;23.124;2023-01-05T11:21:10;97063.19;;;17.85;31.05
39411;BME280;26579;43.238;23.124;2023-01-05T11:23:37;97073.09;;;17.83;31.72
39411;BME280;26579;43.238;23.124;2023-01-05T11:29:01;97074.22;;;17.73;32.30
39411;BME280;26579;43.238;23.124;2023-01-05T11:31:40;97069.44;;;17.68;32.37
39411;BME280;26579;43.238;23.124;2023-01-05T11:34:11;97068.81;;;17.66;32.91
39411;BME280;26579;43.238;23.124;2023-01-05T11:36:39;97057.28;;;17.51;32.91
39411;BME280;26579;43.238;23.124;2023-01-05T11:39:05;97047.44;;;17.45;33.58
39411;BME280;26579;43.238;23.124;2023-01-05T11:41:31;97043.97;;;17.36;32.12
39411;BME280;26579;43.238;23.124;2023-01-05T11:43:56;97043.50;;;17.40;32.14
39411;BME280;26579;43.238;23.124;2023-01-05T11:46:22;97033.44;;;17.44;32.06
39411;BME280;26579;43.238;23.124;2023-01-05T11:48:50;97034.94;;;17.47;32.47
39411;BME280;26579;43.238;23.124;2023-01-05T11:51:31;97028.19;;;17.44;32.97
39411;BME280;26579;43.238;23.124;2023-01-05T11:53:56;97036.41;;;17.57;33.43
39411;BME280;26579;43.238;23.124;2023-01-05T11:56:23;97035.38;;;17.75;34.08
39411;BME280;26579;43.238;23.124;2023-01-05T11:58:52;97037.31;;;17.97;33.40
39411;BME280;26579;43.238;23.124;2023-01-05T18:38:10;97112.25;;;10.48;44.21
39411;BME280;26579;43.238;23.124;2023-01-05T18:40:36;97118.59;;;10.55;44.49
39411;BME280;26579;43.238;23.124;2023-01-05T18:43:01;97126.66;;;10.52;44.24
39411;BME280;26579;43.238;23.124;2023-01-05T18:45:27;97126.91;;;10.49;45.53
39411;BME280;26579;43.238;23.124;2023-01-05T18:47:56;97122.06;;;10.45;45.28
39411;BME280;26579;43.238;23.124;2023-01-05T18:50:22;97114.28;;;10.33;45.34
39411;BME280;26579;43.238;23.124;2023-01-05T18:52:47;97106.47;;;10.33;45.44
39411;BME280;26579;43.238;23.124;2023-01-05T18:55:13;97109.88;;;10.34;45.52
39411;BME280;26579;43.238;23.124;2023-01-05T18:57:39;97108.81;;;10.36;45.21
39411;BME280;26579;43.238;23.124;2023-01-05T19:00:06;97093.22;;;10.36;44.82
39411;BME280;26579;43.238;23.124;2023-01-05T19:02:32;97086.31;;;10.35;45.40
39411;BME280;26579;43.238;23.124;2023-01-05T19:04:57;97084.94;;;10.31;45.51
39411;BME280;26579;43.238;23.124;2023-01-05T19:07:23;97082.22;;;10.33;44.41
39411;BME280;26579;43.238;23.124;2023-01-05T19:09:49;97076.88;;;10.34;44.61
39411;BME280;26579;43.238;23.124;2023-01-05T19:12:19;97078.06;;;10.30;44.50
39411;BME280;26579;43.238;23.124;2023-01-05T19:14:47;97064.59;;;10.36;43.89
39411;BME280;26579;43.238;23.124;2023-01-05T19:17:12;97063.63;;;10.37;44.02
39411;BME280;26579;43.238;23.124;2023-01-05T19:19:38;97062.91;;;10.35;44.15
39411;BME280;26579;43.238;23.124;2023-01-05T19:22:04;97069.53;;;10.39;43.85
39411;BME280;26579;43.238;23.124;2023-01-05T19:24:29;97063.38;;;10.40;44.01
39411;BME280;26579;43.238;23.124;2023-01-05T19:26:55;97066.69;;;10.42;43.80
39411;BME280;26579;43.238;23.124;2023-01-05T19:29:20;97070.25;;;10.41;43.76
39411;BME280;26579;43.238;23.124;2023-01-05T19:31:46;97066.44;;;10.46;43.60
39411;BME280;26579;43.238;23.124;2023-01-05T19:34:12;97066.56;;;10.44;43.55
39411;BME280;26579;43.238;23.124;2023-01-05T19:36:38;97071.19;;;10.40;43.87
39411;BME280;26579;43.238;23.124;2023-01-05T19:39:11;97079.81;;;10.41;44.09
39411;BME280;26579;43.238;23.124;2023-01-05T19:41:38;97093.94;;;10.38;44.75
39411;BME280;26579;43.238;23.124;2023-01-05T19:44:04;97095.78;;;10.25;45.03
39411;BME280;26579;43.238;23.124;2023-01-05T19:46:29;97099.00;;;10.29;44.64
39411;BME280;26579;43.238;23.124;2023-01-05T19:48:56;97104.69;;;10.34;44.42
39411;BME280;26579;43.238;23.124;2023-01-05T19:51:24;97112.59;;;10.32;44.46
39411;BME280;26579;43.238;23.124;2023-01-05T19:53:54;97114.75;;;10.27;44.40
39411;BME280;26579;43.238;23.124;2023-01-05T19:56:20;97121.69;;;10.27;44.81
39411;BME280;26579;43.238;23.124;2023-01-05T19:58:49;97116.25;;;10.18;44.54
39411;BME280;26579;43.238;23.124;2023-01-05T20:01:14;97121.56;;;10.17;45.00
39411;BME280;26579;43.238;23.124;2023-01-05T20:03:41;97124.53;;;10.12;45.36
39411;BME280;26579;43.238;23.124;2023-01-05T20:06:08;97128.06;;;10.11;45.19
39411;BME280;26579;43.238;23.124;2023-01-05T20:08:34;97133.41;;;10.10;45.29
39411;BME280;26579;43.238;23.124;2023-01-05T20:11:10;97136.84;;;10.10;45.41
39411;BME280;26579;43.238;23.124;2023-01-05T20:13:36;97137.41;;;10.03;45.32
39411;BME280;26579;43.238;23.124;2023-01-05T20:16:05;97146.41;;;9.98;45.02